createdAt,value
2018-07-05T00:00:40.432Z,18.26
2018-07-05T00:01:40.392Z,18.28
2018-07-05T00:02:40.346Z,18.35
2018-07-05T00:03:40.299Z,18.23
2018-07-05T00:04:40.290Z,18.22
2018-07-05T00:05:40.252Z,18.19
2018-07-05T00:06:40.171Z,18.22
2018-07-05T00:07:40.133Z,18.10
2018-07-05T00:08:40.082Z,18.16
2018-07-05T00:09:40.037Z,18.11
2018-07-05T00:10:40.027Z,18.03
2018-07-05T00:11:39.998Z,18.07
2018-07-05T00:12:39.904Z,18.08
2018-07-05T00:13:39.860Z,18.13
2018-07-05T00:14:39.816Z,18.03
2018-07-05T00:15:39.779Z,18.10
2018-07-05T00:16:39.768Z,18.16
2018-07-05T00:17:39.682Z,18.07
2018-07-05T00:18:39.640Z,18.20
2018-07-05T00:19:39.595Z,18.18
2018-07-05T00:20:39.551Z,18.20
2018-07-05T00:21:39.537Z,18.23
2018-07-05T00:22:39.503Z,18.18
2018-07-05T00:23:39.417Z,18.16
2018-07-05T00:24:39.374Z,18.11
2018-07-05T00:25:39.329Z,18.19
2018-07-05T00:26:39.287Z,18.19
2018-07-05T00:27:39.283Z,18.10
2018-07-05T00:28:39.203Z,18.18
2018-07-05T00:29:39.153Z,18.16
2018-07-05T00:30:39.109Z,18.20
2018-07-05T00:31:39.065Z,18.23
2018-07-05T00:32:39.059Z,18.34
2018-07-05T00:33:38.977Z,18.28
2018-07-05T00:34:38.929Z,18.38
2018-07-05T00:35:38.889Z,18.35
2018-07-05T00:36:38.842Z,18.40
2018-07-05T00:37:38.838Z,18.29
2018-07-05T00:38:38.753Z,18.20
2018-07-05T00:39:38.712Z,18.10
2018-07-05T00:40:38.668Z,17.87
2018-07-05T00:41:38.625Z,17.68
2018-07-05T00:42:38.613Z,17.65
2018-07-05T00:43:38.535Z,17.57
2018-07-05T00:44:38.522Z,17.51
2018-07-05T00:45:38.448Z,17.52
2018-07-05T00:46:38.401Z,17.38
2018-07-05T00:47:38.388Z,17.39
2018-07-05T00:48:38.313Z,17.42
2018-07-05T00:49:38.265Z,17.38
2018-07-05T00:50:38.224Z,17.46
2018-07-05T00:51:38.179Z,17.51
2018-07-05T00:52:38.184Z,17.56
2018-07-05T00:53:38.091Z,17.49
2018-07-05T00:54:38.046Z,17.44
2018-07-05T00:55:38.001Z,17.48
2018-07-05T00:56:37.963Z,17.56
2018-07-05T00:57:37.944Z,17.44
2018-07-05T00:58:37.867Z,17.49
2018-07-05T00:59:37.821Z,17.56
2018-07-05T01:00:37.777Z,17.51
2018-07-05T01:01:37.732Z,17.57
2018-07-05T01:02:37.768Z,17.51
2018-07-05T01:03:37.694Z,17.59
2018-07-05T01:04:37.600Z,17.67
2018-07-05T01:05:37.558Z,17.68
2018-07-05T01:06:37.511Z,17.64
2018-07-05T01:07:37.468Z,17.71
2018-07-05T01:08:37.454Z,17.63
2018-07-05T01:09:37.377Z,17.65
2018-07-05T01:10:37.336Z,17.74
2018-07-05T01:11:37.287Z,17.72
2018-07-05T01:12:37.292Z,17.63
2018-07-05T01:13:37.197Z,17.60
2018-07-05T01:14:37.155Z,17.44
2018-07-05T01:15:37.110Z,17.49
2018-07-05T01:16:37.067Z,17.36
2018-07-05T01:17:37.051Z,17.39
2018-07-05T01:18:36.974Z,17.38
2018-07-05T01:19:36.930Z,17.39
2018-07-05T01:20:36.887Z,17.39
2018-07-05T01:21:36.841Z,17.27
2018-07-05T01:22:36.833Z,17.39
2018-07-05T01:23:36.752Z,17.38
2018-07-05T01:24:36.708Z,17.36
2018-07-05T01:25:36.663Z,17.45
2018-07-05T01:26:36.617Z,17.29
2018-07-05T01:27:36.608Z,17.42
2018-07-05T01:28:36.529Z,17.49
2018-07-05T01:29:36.486Z,17.48
2018-07-05T01:30:36.439Z,17.46
2018-07-05T01:31:36.393Z,17.49
2018-07-05T01:32:36.381Z,17.42
2018-07-05T01:33:36.304Z,17.49
2018-07-05T01:34:36.259Z,17.46
2018-07-05T01:35:36.216Z,17.44
2018-07-05T01:36:36.213Z,17.51
2018-07-05T01:37:36.124Z,17.54
2018-07-05T01:38:36.085Z,17.54
2018-07-05T01:39:36.042Z,17.57
2018-07-05T01:40:35.992Z,17.41
2018-07-05T01:41:35.980Z,17.41
2018-07-05T01:42:35.902Z,17.48
2018-07-05T01:43:35.897Z,17.52
2018-07-05T01:44:35.813Z,17.51
2018-07-05T01:45:35.765Z,17.52
2018-07-05T01:46:35.720Z,17.59
2018-07-05T01:47:35.679Z,17.63
2018-07-05T01:48:35.668Z,17.56
2018-07-05T01:49:35.586Z,17.63
2018-07-05T01:50:35.566Z,17.59
2018-07-05T01:51:35.498Z,17.56
2018-07-05T01:52:35.456Z,17.56
2018-07-05T01:53:35.439Z,17.59
2018-07-05T01:54:35.396Z,17.48
2018-07-05T01:55:35.323Z,17.48
2018-07-05T01:56:35.275Z,17.52
2018-07-05T01:57:35.228Z,17.49
2018-07-05T01:58:35.188Z,17.56
2018-07-05T01:59:35.171Z,17.48
2018-07-05T02:00:35.093Z,17.54
2018-07-05T02:01:35.050Z,17.52
2018-07-05T02:02:35.007Z,17.51
2018-07-05T02:03:34.960Z,17.52
2018-07-05T02:04:34.944Z,17.59
2018-07-05T02:05:34.869Z,17.51
2018-07-05T02:06:34.829Z,17.57
2018-07-05T02:07:34.783Z,17.51
2018-07-05T02:08:34.735Z,17.52
2018-07-05T02:09:34.725Z,17.51
2018-07-05T02:10:34.644Z,17.42
2018-07-05T02:11:34.633Z,17.33
2018-07-05T02:12:34.559Z,17.42
2018-07-05T02:13:34.509Z,17.33
2018-07-05T02:14:34.528Z,17.39
2018-07-05T02:15:34.419Z,17.39
2018-07-05T02:16:34.409Z,17.31
2018-07-05T02:17:34.330Z,17.30
2018-07-05T02:18:34.321Z,17.24
2018-07-05T02:19:34.245Z,17.19
2018-07-05T02:20:34.200Z,17.19
2018-07-05T02:21:34.152Z,17.22
2018-07-05T02:22:34.105Z,17.16
2018-07-05T02:23:34.094Z,17.23
2018-07-05T02:24:34.017Z,17.26
2018-07-05T02:25:34.005Z,17.30
2018-07-05T02:26:33.927Z,17.29
2018-07-05T02:27:33.887Z,17.23
2018-07-05T02:28:33.835Z,17.24
2018-07-05T02:29:33.792Z,17.15
2018-07-05T02:30:33.783Z,17.19
2018-07-05T02:31:33.704Z,17.14
2018-07-05T02:32:33.657Z,17.12
2018-07-05T02:33:33.613Z,17.12
2018-07-05T02:34:33.599Z,17.14
2018-07-05T02:35:33.530Z,17.01
2018-07-05T02:36:33.477Z,16.96
2018-07-05T02:37:33.429Z,17.04
2018-07-05T02:38:33.387Z,17.02
2018-07-05T02:39:33.373Z,17.06
2018-07-05T02:40:33.297Z,17.02
2018-07-05T02:41:33.250Z,17.06
2018-07-05T02:42:33.204Z,17.04
2018-07-05T02:43:33.193Z,17.02
2018-07-05T02:44:33.144Z,17.04
2018-07-05T02:45:33.108Z,17.04
2018-07-05T02:46:33.024Z,17.08
2018-07-05T02:47:32.981Z,17.09
2018-07-05T02:48:32.934Z,17.19
2018-07-05T02:49:32.890Z,17.12
2018-07-05T02:50:32.876Z,17.12
2018-07-05T02:51:32.802Z,17.22
2018-07-05T02:52:32.756Z,17.22
2018-07-05T02:53:32.711Z,17.12
2018-07-05T02:54:32.704Z,17.15
2018-07-05T02:55:32.617Z,17.19
2018-07-05T02:56:32.569Z,17.22
2018-07-05T02:57:32.524Z,17.27
2018-07-05T02:58:32.479Z,17.27
2018-07-05T02:59:32.467Z,17.29
2018-07-05T03:00:32.390Z,17.31
2018-07-05T03:01:32.375Z,17.29
2018-07-05T03:02:32.301Z,17.30
2018-07-05T03:03:32.254Z,17.27
2018-07-05T03:04:32.206Z,17.29
2018-07-05T03:05:32.195Z,17.30
2018-07-05T03:06:32.152Z,17.42
2018-07-05T03:07:32.073Z,17.30
2018-07-05T03:08:32.040Z,17.29
2018-07-05T03:09:31.983Z,17.29
2018-07-05T03:10:31.936Z,17.19
2018-07-05T03:11:31.936Z,17.15
2018-07-05T03:12:31.845Z,17.08
2018-07-05T03:13:31.798Z,17.02
2018-07-05T03:14:31.756Z,17.01
2018-07-05T03:15:31.709Z,17.02
2018-07-05T03:16:31.712Z,17.09
2018-07-05T03:17:31.619Z,17.15
2018-07-05T03:18:31.571Z,17.20
2018-07-05T03:19:31.527Z,17.12
2018-07-05T03:20:31.482Z,17.08
2018-07-05T03:21:31.469Z,17.22
2018-07-05T03:22:31.393Z,17.09
2018-07-05T03:23:31.345Z,17.19
2018-07-05T03:24:31.331Z,17.14
2018-07-05T03:25:31.257Z,17.16
2018-07-05T03:26:31.208Z,17.19
2018-07-05T03:27:31.203Z,17.20
2018-07-05T03:28:31.122Z,17.20
2018-07-05T03:29:31.073Z,17.15
2018-07-05T03:30:31.028Z,17.12
2018-07-05T03:31:30.982Z,17.16
2018-07-05T03:32:30.975Z,17.09
2018-07-05T03:33:30.895Z,17.08
2018-07-05T03:34:30.896Z,16.93
2018-07-05T03:35:30.799Z,16.99
2018-07-05T03:36:30.765Z,16.84
2018-07-05T03:37:30.721Z,16.84
2018-07-05T03:38:30.662Z,16.81
2018-07-05T03:39:30.650Z,16.74
2018-07-05T03:40:30.576Z,16.61
2018-07-05T03:41:30.529Z,16.58
2018-07-05T03:42:30.513Z,16.49
2018-07-05T03:43:30.442Z,16.49
2018-07-05T03:44:30.398Z,16.54
2018-07-05T03:45:30.388Z,16.56
2018-07-05T03:46:30.301Z,16.58
2018-07-05T03:47:30.266Z,16.61
2018-07-05T03:48:30.210Z,16.68
2018-07-05T03:49:30.164Z,16.68
2018-07-05T03:50:30.162Z,16.74
2018-07-05T03:51:30.098Z,16.69
2018-07-05T03:52:30.027Z,16.64
2018-07-05T03:53:30.009Z,16.74
2018-07-05T03:54:29.935Z,16.69
2018-07-05T03:55:29.922Z,16.58
2018-07-05T03:56:29.877Z,16.58
2018-07-05T03:57:29.796Z,16.60
2018-07-05T03:58:29.752Z,16.64
2018-07-05T03:59:29.708Z,16.57
2018-07-05T04:00:29.661Z,16.66
2018-07-05T04:01:29.649Z,16.72
2018-07-05T04:02:29.618Z,16.81
2018-07-05T04:03:29.524Z,16.74
2018-07-05T04:04:29.483Z,16.78
2018-07-05T04:05:29.479Z,16.86
2018-07-05T04:06:29.389Z,16.87
2018-07-05T04:07:29.343Z,16.83
2018-07-05T04:08:29.310Z,16.83
2018-07-05T04:09:29.252Z,16.84
2018-07-05T04:10:29.235Z,16.83
2018-07-05T04:11:29.182Z,16.78
2018-07-05T04:12:29.145Z,16.78
2018-07-05T04:13:29.076Z,16.79
2018-07-05T04:14:29.028Z,16.78
2018-07-05T04:15:28.976Z,16.74
2018-07-05T04:16:28.934Z,16.74
2018-07-05T04:17:28.928Z,16.81
2018-07-05T04:18:28.850Z,16.86
2018-07-05T04:19:28.795Z,16.89
2018-07-05T04:20:28.752Z,16.94
2018-07-05T04:21:28.706Z,16.99
2018-07-05T04:22:28.690Z,16.91
2018-07-05T04:23:28.653Z,17.04
2018-07-05T04:24:28.568Z,17.01
2018-07-05T04:25:28.523Z,17.15
2018-07-05T04:26:28.476Z,17.14
2018-07-05T04:27:28.432Z,17.19
2018-07-05T04:28:28.432Z,17.20
2018-07-05T04:29:28.344Z,17.22
2018-07-05T04:30:28.300Z,17.24
2018-07-05T04:31:28.249Z,17.30
2018-07-05T04:32:28.205Z,17.34
2018-07-05T04:33:28.189Z,17.34
2018-07-05T04:34:28.110Z,17.45
2018-07-05T04:35:28.068Z,17.44
2018-07-05T04:36:28.021Z,17.44
2018-07-05T04:37:27.977Z,17.48
2018-07-05T04:38:27.964Z,17.45
2018-07-05T04:39:27.916Z,17.59
2018-07-05T04:40:27.838Z,17.59
2018-07-05T04:41:27.793Z,17.57
2018-07-05T04:42:27.790Z,17.49
2018-07-05T04:43:27.706Z,17.49
2018-07-05T04:44:27.691Z,17.52
2018-07-05T04:45:27.614Z,17.51
2018-07-05T04:46:27.584Z,17.49
2018-07-05T04:47:27.520Z,17.44
2018-07-05T04:48:27.479Z,17.56
2018-07-05T04:49:27.462Z,17.48
2018-07-05T04:50:27.420Z,17.52
2018-07-05T04:51:27.339Z,17.49
2018-07-05T04:52:27.332Z,17.52
2018-07-05T04:53:27.251Z,17.51
2018-07-05T04:54:27.202Z,17.48
2018-07-05T04:55:27.233Z,17.46
2018-07-05T04:56:27.113Z,17.52
2018-07-05T04:57:27.113Z,17.44
2018-07-05T04:58:27.020Z,17.52
2018-07-05T04:59:26.977Z,17.44
2018-07-05T05:00:26.933Z,17.48
2018-07-05T05:01:26.885Z,17.44
2018-07-05T05:02:26.940Z,17.54
2018-07-05T05:03:26.799Z,17.48
2018-07-05T05:04:26.751Z,17.48
2018-07-05T05:05:26.706Z,17.59
2018-07-05T05:06:26.665Z,17.63
2018-07-05T05:07:26.667Z,17.63
2018-07-05T05:08:26.572Z,17.70
2018-07-05T05:09:26.533Z,17.71
2018-07-05T05:10:26.607Z,17.76
2018-07-05T05:11:26.433Z,17.80
2018-07-05T05:12:26.390Z,17.82
2018-07-05T05:13:26.344Z,17.83
2018-07-05T05:14:26.298Z,17.97
2018-07-05T05:15:26.286Z,17.97
2018-07-05T05:16:26.218Z,17.98
2018-07-05T05:17:26.205Z,18.03
2018-07-05T05:18:26.117Z,18.04
2018-07-05T05:19:26.074Z,18.10
2018-07-05T05:20:26.031Z,18.11
2018-07-05T05:21:25.982Z,18.29
2018-07-05T05:22:25.969Z,18.25
2018-07-05T05:23:25.892Z,18.19
2018-07-05T05:24:25.849Z,18.34
2018-07-05T05:25:25.805Z,18.37
2018-07-05T05:26:25.788Z,18.38
2018-07-05T05:27:25.725Z,18.37
2018-07-05T05:28:25.706Z,18.43
2018-07-05T05:29:25.624Z,18.38
2018-07-05T05:30:25.576Z,18.50
2018-07-05T05:31:25.533Z,18.47
2018-07-05T05:32:25.491Z,18.49
2018-07-05T05:33:25.480Z,18.58
2018-07-05T05:34:25.403Z,18.60
2018-07-05T05:35:25.384Z,18.65
2018-07-05T05:36:25.312Z,18.59
2018-07-05T05:37:25.265Z,18.68
2018-07-05T05:38:25.263Z,18.77
2018-07-05T05:39:25.176Z,18.74
2018-07-05T05:40:25.132Z,18.77
2018-07-05T05:41:25.087Z,18.75
2018-07-05T05:42:25.044Z,18.98
2018-07-05T05:43:25.045Z,18.88
2018-07-05T05:44:24.963Z,18.95
2018-07-05T05:45:24.909Z,19.02
2018-07-05T05:46:24.870Z,19.02
2018-07-05T05:47:24.821Z,19.00
2018-07-05T05:48:24.818Z,19.12
2018-07-05T05:49:24.732Z,19.02
2018-07-05T05:50:24.686Z,19.09
2018-07-05T05:51:24.646Z,19.16
2018-07-05T05:52:24.602Z,19.27
2018-07-05T05:53:24.590Z,19.24
2018-07-05T05:54:24.514Z,19.27
2018-07-05T05:55:24.467Z,19.36
2018-07-05T05:56:24.454Z,19.37
2018-07-05T05:57:24.379Z,19.48
2018-07-05T05:58:24.336Z,19.41
2018-07-05T05:59:24.290Z,19.47
2018-07-05T06:00:24.248Z,19.56
2018-07-05T06:01:24.234Z,19.58
2018-07-05T06:02:24.159Z,19.58
2018-07-05T06:03:24.116Z,19.74
2018-07-05T06:04:24.072Z,19.74
2018-07-05T06:05:24.026Z,19.85
2018-07-05T06:06:24.018Z,19.88
2018-07-05T06:07:23.974Z,19.99
2018-07-05T06:08:23.895Z,20.00
2018-07-05T06:09:23.857Z,20.06
2018-07-05T06:10:23.808Z,20.03
2018-07-05T06:11:23.768Z,20.04
2018-07-05T06:12:23.753Z,20.11
2018-07-05T06:13:23.676Z,20.06
2018-07-05T06:14:23.633Z,20.07
2018-07-05T06:15:23.616Z,20.22
2018-07-05T06:16:23.549Z,20.25
2018-07-05T06:17:23.539Z,20.26
2018-07-05T06:18:23.462Z,20.25
2018-07-05T06:19:23.450Z,20.21
2018-07-05T06:20:23.376Z,20.29
2018-07-05T06:21:23.330Z,20.36
2018-07-05T06:22:23.285Z,20.31
2018-07-05T06:23:23.240Z,20.32
2018-07-05T06:24:23.230Z,20.36
2018-07-05T06:25:23.155Z,20.47
2018-07-05T06:26:23.111Z,20.48
2018-07-05T06:27:23.072Z,20.52
2018-07-05T06:28:23.026Z,20.56
2018-07-05T06:29:23.019Z,20.55
2018-07-05T06:30:22.939Z,20.60
2018-07-05T06:31:22.939Z,20.66
2018-07-05T06:32:22.858Z,20.59
2018-07-05T06:33:22.810Z,20.66
2018-07-05T06:34:22.779Z,20.66
2018-07-05T06:35:22.724Z,20.69
2018-07-05T06:36:22.723Z,20.74
2018-07-05T06:37:22.639Z,20.78
2018-07-05T06:38:22.595Z,20.81
2018-07-05T06:39:22.551Z,20.81
2018-07-05T06:40:22.514Z,20.87
2018-07-05T06:41:22.496Z,20.84
2018-07-05T06:42:22.426Z,20.92
2018-07-05T06:43:22.380Z,20.87
2018-07-05T06:44:22.336Z,20.85
2018-07-05T06:45:22.295Z,20.95
2018-07-05T06:46:22.282Z,21.05
2018-07-05T06:47:22.214Z,21.02
2018-07-05T06:48:22.166Z,21.02
2018-07-05T06:49:22.193Z,21.06
2018-07-05T06:50:22.080Z,21.15
2018-07-05T06:51:22.076Z,21.15
2018-07-05T06:52:21.995Z,21.24
2018-07-05T06:53:21.951Z,21.30
2018-07-05T06:54:21.907Z,21.35
2018-07-05T06:55:21.867Z,21.48
2018-07-05T06:56:21.868Z,21.39
2018-07-05T06:57:21.784Z,21.48
2018-07-05T06:58:21.738Z,21.52
2018-07-05T06:59:21.697Z,21.62
2018-07-05T07:00:21.654Z,21.64
2018-07-05T07:01:21.643Z,21.70
2018-07-05T07:02:21.569Z,21.80
2018-07-05T07:03:21.560Z,21.82
2018-07-05T07:04:21.485Z,21.77
2018-07-05T07:05:21.492Z,21.82
2018-07-05T07:06:21.398Z,21.80
2018-07-05T07:07:21.356Z,21.83
2018-07-05T07:08:21.314Z,21.91
2018-07-05T07:09:21.271Z,21.93
2018-07-05T07:10:21.265Z,21.98
2018-07-05T07:11:21.187Z,21.96
2018-07-05T07:12:21.148Z,22.02
2018-07-05T07:13:21.136Z,22.04
2018-07-05T07:14:21.062Z,22.07
2018-07-05T07:15:21.021Z,22.18
2018-07-05T07:16:20.976Z,22.14
2018-07-05T07:17:20.933Z,22.20
2018-07-05T07:18:20.924Z,22.26
2018-07-05T07:19:20.850Z,22.25
2018-07-05T07:20:20.813Z,22.30
2018-07-05T07:21:20.764Z,22.33
2018-07-05T07:22:20.762Z,22.30
2018-07-05T07:23:20.684Z,22.28
2018-07-05T07:24:20.671Z,22.33
2018-07-05T07:25:20.604Z,22.47
2018-07-05T07:26:20.556Z,22.50
2018-07-05T07:27:20.541Z,22.39
2018-07-05T07:28:20.474Z,22.60
2018-07-05T07:29:20.468Z,22.55
2018-07-05T07:30:20.393Z,22.54
2018-07-05T07:31:20.387Z,22.66
2018-07-05T07:32:20.307Z,22.78
2018-07-05T07:33:20.265Z,22.80
2018-07-05T07:34:20.254Z,22.76
2018-07-05T07:35:20.181Z,22.87
2018-07-05T07:36:20.193Z,22.83
2018-07-05T07:37:20.107Z,22.90
2018-07-05T07:38:20.056Z,22.93
2018-07-05T07:39:20.019Z,22.99
2018-07-05T07:40:19.975Z,22.99
2018-07-05T07:41:19.972Z,23.02
2018-07-05T07:42:19.892Z,23.06
2018-07-05T07:43:19.852Z,23.18
2018-07-05T07:44:19.807Z,23.15
2018-07-05T07:45:19.770Z,23.20
2018-07-05T07:46:19.764Z,23.20
2018-07-05T07:47:19.684Z,23.20
2018-07-05T07:48:19.643Z,23.36
2018-07-05T07:49:19.601Z,23.40
2018-07-05T07:50:19.559Z,23.43
2018-07-05T07:51:19.618Z,23.55
2018-07-05T07:52:19.482Z,23.55
2018-07-05T07:53:19.438Z,23.66
2018-07-05T07:54:19.436Z,23.65
2018-07-05T07:55:19.355Z,23.76
2018-07-05T07:56:19.312Z,23.76
2018-07-05T07:57:19.273Z,23.81
2018-07-05T07:58:19.368Z,23.88
2018-07-05T07:59:19.223Z,24.02
2018-07-05T08:00:19.150Z,24.08
2018-07-05T08:01:19.139Z,24.14
2018-07-05T08:02:19.073Z,24.16
2018-07-05T08:03:19.029Z,24.13
2018-07-05T08:04:18.987Z,24.16
2018-07-05T08:05:18.946Z,24.26
2018-07-05T08:06:18.939Z,24.32
2018-07-05T08:07:18.863Z,24.35
2018-07-05T08:08:18.899Z,24.43
2018-07-05T08:09:18.781Z,24.57
2018-07-05T08:10:18.747Z,24.60
2018-07-05T08:11:18.740Z,24.66
2018-07-05T08:12:18.669Z,24.74
2018-07-05T08:13:18.619Z,24.89
2018-07-05T08:14:18.580Z,24.93
2018-07-05T08:15:18.540Z,24.95
2018-07-05T08:16:18.530Z,25.11
2018-07-05T08:17:18.457Z,25.13
2018-07-05T08:18:18.420Z,25.31
2018-07-05T08:19:18.379Z,25.33
2018-07-05T08:20:18.338Z,25.47
2018-07-05T08:21:18.337Z,25.54
2018-07-05T08:22:18.258Z,25.69
2018-07-05T08:23:18.218Z,25.73
2018-07-05T08:24:18.176Z,25.77
2018-07-05T08:25:18.138Z,25.85
2018-07-05T08:26:18.129Z,25.85
2018-07-05T08:27:18.059Z,25.93
2018-07-05T08:28:18.020Z,26.06
2018-07-05T08:29:17.978Z,26.16
2018-07-05T08:30:17.973Z,26.19
2018-07-05T08:31:17.909Z,26.28
2018-07-05T08:32:17.894Z,26.37
2018-07-05T08:33:17.821Z,26.51
2018-07-05T08:34:17.782Z,26.58
2018-07-05T08:35:17.743Z,26.66
2018-07-05T08:36:17.702Z,26.78
2018-07-05T08:37:17.705Z,26.92
2018-07-05T08:38:17.623Z,26.97
2018-07-05T08:39:17.584Z,27.12
2018-07-05T08:40:17.545Z,27.33
2018-07-05T08:41:17.505Z,27.35
2018-07-05T08:42:17.497Z,27.51
2018-07-05T08:43:17.424Z,27.64
2018-07-05T08:44:17.392Z,27.51
2018-07-05T08:45:17.350Z,27.60
2018-07-05T08:46:17.309Z,27.60
2018-07-05T08:47:17.303Z,27.70
2018-07-05T08:48:17.268Z,27.85
2018-07-05T08:49:17.206Z,27.92
2018-07-05T08:50:17.154Z,28.02
2018-07-05T08:51:17.187Z,28.22
2018-07-05T08:52:17.081Z,28.27
2018-07-05T08:53:17.036Z,28.39
2018-07-05T08:54:17.002Z,28.52
2018-07-05T08:55:16.959Z,28.59
2018-07-05T08:56:16.955Z,28.75
2018-07-05T08:57:16.882Z,28.74
2018-07-05T08:58:16.884Z,28.86
2018-07-05T08:59:16.841Z,29.01
2018-07-05T09:00:16.771Z,29.12
2018-07-05T09:01:16.734Z,29.29
2018-07-05T09:02:16.722Z,29.29
2018-07-05T09:03:16.659Z,29.10
2018-07-05T09:04:16.653Z,28.96
2018-07-05T09:05:16.581Z,28.82
2018-07-05T09:06:16.541Z,28.76
2018-07-05T09:07:16.502Z,28.88
2018-07-05T09:08:16.462Z,28.98
2018-07-05T09:09:16.471Z,29.05
2018-07-05T09:10:16.391Z,28.98
2018-07-05T09:11:16.350Z,29.17
2018-07-05T09:12:16.313Z,29.31
2018-07-05T09:13:16.271Z,29.47
2018-07-05T09:14:16.275Z,29.53
2018-07-05T09:15:16.196Z,29.50
2018-07-05T09:16:16.165Z,29.56
2018-07-05T09:17:16.122Z,29.66
2018-07-05T09:18:16.196Z,29.68
2018-07-05T09:19:16.083Z,29.54
2018-07-05T09:20:16.026Z,29.38
2018-07-05T09:21:15.971Z,29.27
2018-07-05T09:22:15.939Z,29.34
2018-07-05T09:23:15.959Z,29.53
2018-07-05T09:24:15.889Z,29.75
2018-07-05T09:25:15.821Z,30.09
2018-07-05T09:26:15.783Z,30.37
2018-07-05T09:27:15.745Z,30.63
2018-07-05T09:28:15.744Z,30.68
2018-07-05T09:29:15.701Z,30.83
2018-07-05T09:30:15.631Z,30.92
2018-07-05T09:31:15.710Z,31.25
2018-07-05T09:32:15.557Z,31.47
2018-07-05T09:33:15.551Z,31.58
2018-07-05T09:34:15.532Z,31.59
2018-07-05T09:35:15.448Z,31.70
2018-07-05T09:36:15.410Z,31.80
2018-07-05T09:37:15.384Z,31.96
2018-07-05T09:38:15.335Z,32.01
2018-07-05T09:39:15.329Z,31.93
2018-07-05T09:40:15.263Z,31.99
2018-07-05T09:41:15.238Z,32.00
2018-07-05T09:42:15.191Z,32.04
2018-07-05T09:43:15.191Z,31.94
2018-07-05T09:44:15.116Z,31.93
2018-07-05T09:45:15.079Z,31.97
2018-07-05T09:46:15.042Z,31.76
2018-07-05T09:47:15.006Z,31.64
2018-07-05T09:48:15.001Z,31.49
2018-07-05T09:49:14.933Z,31.25
2018-07-05T09:50:14.935Z,31.17
2018-07-05T09:51:14.860Z,31.24
2018-07-05T09:52:14.823Z,31.36
2018-07-05T09:53:14.792Z,31.54
2018-07-05T09:54:14.749Z,31.49
2018-07-05T09:55:14.746Z,31.65
2018-07-05T09:56:14.727Z,31.85
2018-07-05T09:57:14.643Z,32.14
2018-07-05T09:58:14.605Z,32.18
2018-07-05T09:59:14.571Z,31.85
2018-07-05T10:00:14.534Z,31.64
2018-07-05T10:01:14.532Z,31.44
2018-07-05T10:02:14.462Z,31.46
2018-07-05T10:03:14.427Z,31.70
2018-07-05T10:04:14.389Z,31.85
2018-07-05T10:05:14.352Z,31.78
2018-07-05T10:06:14.347Z,31.54
2018-07-05T10:07:14.280Z,31.28
2018-07-05T10:08:14.292Z,31.22
2018-07-05T10:09:14.215Z,31.18
2018-07-05T10:10:14.171Z,31.14
2018-07-05T10:11:14.133Z,31.17
2018-07-05T10:12:14.098Z,31.40
2018-07-05T10:13:14.192Z,31.42
2018-07-05T10:14:14.027Z,31.62
2018-07-05T10:15:13.991Z,31.84
2018-07-05T10:16:13.953Z,31.90
2018-07-05T10:17:13.925Z,32.09
2018-07-05T10:18:13.924Z,32.29
2018-07-05T10:19:13.845Z,32.36
2018-07-05T10:20:13.815Z,32.15
2018-07-05T10:21:13.773Z,31.81
2018-07-05T10:22:13.739Z,31.84
2018-07-05T10:23:13.736Z,31.85
2018-07-05T10:24:13.707Z,32.18
2018-07-05T10:25:13.628Z,32.16
2018-07-05T10:26:13.595Z,32.07
2018-07-05T10:27:13.559Z,32.19
2018-07-05T10:28:13.523Z,32.38
2018-07-05T10:29:13.512Z,32.63
2018-07-05T10:30:13.451Z,32.71
2018-07-05T10:31:13.415Z,32.75
2018-07-05T10:32:13.381Z,32.83
2018-07-05T10:33:13.345Z,32.96
2018-07-05T10:34:13.346Z,33.23
2018-07-05T10:35:13.274Z,33.37
2018-07-05T10:36:13.238Z,33.46
2018-07-05T10:37:13.206Z,33.59
2018-07-05T10:38:13.191Z,33.71
2018-07-05T10:39:13.168Z,33.67
2018-07-05T10:40:13.100Z,33.81
2018-07-05T10:41:13.068Z,33.79
2018-07-05T10:42:13.027Z,33.68
2018-07-05T10:43:13.029Z,33.59
2018-07-05T10:44:12.958Z,33.58
2018-07-05T10:45:12.921Z,33.62
2018-07-05T10:46:12.922Z,33.12
2018-07-05T10:47:12.855Z,32.83
2018-07-05T10:48:12.816Z,32.73
2018-07-05T10:49:12.822Z,32.74
2018-07-05T10:50:12.748Z,32.80
2018-07-05T10:51:12.709Z,33.00
2018-07-05T10:52:12.684Z,33.20
2018-07-05T10:53:12.640Z,33.36
2018-07-05T10:54:12.638Z,33.12
2018-07-05T10:55:12.608Z,32.70
2018-07-05T10:56:12.576Z,32.38
2018-07-05T10:57:12.499Z,32.14
2018-07-05T10:58:12.470Z,32.07
2018-07-05T10:59:12.432Z,32.04
2018-07-05T11:00:12.397Z,32.11
2018-07-05T11:01:12.440Z,31.96
2018-07-05T11:02:12.326Z,31.89
2018-07-05T11:03:12.323Z,31.94
2018-07-05T11:04:12.255Z,32.22
2018-07-05T11:05:12.223Z,32.51
2018-07-05T11:06:12.218Z,32.52
2018-07-05T11:07:12.168Z,32.48
2018-07-05T11:08:12.116Z,32.59
2018-07-05T11:09:12.112Z,32.58
2018-07-05T11:10:12.044Z,32.56
2018-07-05T11:11:12.013Z,32.37
2018-07-05T11:12:12.007Z,32.27
2018-07-05T11:13:11.939Z,32.11
2018-07-05T11:14:11.904Z,32.08
2018-07-05T11:15:11.868Z,31.81
2018-07-05T11:16:11.835Z,31.43
2018-07-05T11:17:11.845Z,31.17
2018-07-05T11:18:11.760Z,30.78
2018-07-05T11:19:11.726Z,30.68
2018-07-05T11:20:11.692Z,30.44
2018-07-05T11:21:11.654Z,30.27
2018-07-05T11:22:11.650Z,30.40
2018-07-05T11:23:11.584Z,30.46
2018-07-05T11:24:11.589Z,30.61
2018-07-05T11:25:11.512Z,30.81
2018-07-05T11:26:11.476Z,30.85
2018-07-05T11:27:12.324Z,31.02
2018-07-05T11:28:11.405Z,31.22
2018-07-05T11:29:11.409Z,31.46
2018-07-05T11:30:11.366Z,31.80
2018-07-05T11:31:11.300Z,31.99
2018-07-05T11:32:11.262Z,31.90
2018-07-05T11:33:11.229Z,32.11
2018-07-05T11:34:11.221Z,32.29
2018-07-05T11:35:11.156Z,32.40
2018-07-05T11:36:11.160Z,32.73
2018-07-05T11:37:11.149Z,32.89
2018-07-05T11:38:11.050Z,33.09
2018-07-05T11:39:11.012Z,33.30
2018-07-05T11:40:10.975Z,33.39
2018-07-05T11:41:10.991Z,33.53
2018-07-05T11:42:10.906Z,33.55
2018-07-05T11:43:10.870Z,33.46
2018-07-05T11:44:10.837Z,33.40
2018-07-05T11:45:10.804Z,33.05
2018-07-05T11:46:10.800Z,32.75
2018-07-05T11:47:10.733Z,32.67
2018-07-05T11:48:10.700Z,32.86
2018-07-05T11:49:10.658Z,33.17
2018-07-05T11:50:10.655Z,33.46
2018-07-05T11:51:10.589Z,33.62
2018-07-05T11:52:10.569Z,33.76
2018-07-05T11:53:10.519Z,33.68
2018-07-05T11:54:10.488Z,33.62
2018-07-05T11:55:10.481Z,33.64
2018-07-05T11:56:10.444Z,33.77
2018-07-05T11:57:10.378Z,33.94
2018-07-05T11:58:10.347Z,34.03
2018-07-05T11:59:10.307Z,34.21
2018-07-05T12:00:10.468Z,34.17
2018-07-05T12:01:10.239Z,34.13
2018-07-05T12:02:10.205Z,34.05
2018-07-05T12:03:10.203Z,33.59
2018-07-05T12:04:10.150Z,33.61
2018-07-05T12:05:10.135Z,33.57
2018-07-05T12:06:10.070Z,33.77
2018-07-05T12:07:10.033Z,33.87
2018-07-05T12:08:10.034Z,34.01
2018-07-05T12:09:09.961Z,33.99
2018-07-05T12:10:09.981Z,34.13
2018-07-05T12:11:09.896Z,34.21
2018-07-05T12:12:09.859Z,34.17
2018-07-05T12:13:09.826Z,34.02
2018-07-05T12:14:09.791Z,34.10
2018-07-05T12:15:09.786Z,33.83
2018-07-05T12:16:09.760Z,33.96
2018-07-05T12:17:09.689Z,34.03
2018-07-05T12:18:09.654Z,34.01
2018-07-05T12:19:09.652Z,34.13
2018-07-05T12:20:09.588Z,34.33
2018-07-05T12:21:09.550Z,34.35
2018-07-05T12:22:09.516Z,34.42
2018-07-05T12:23:09.480Z,34.39
2018-07-05T12:24:09.534Z,34.52
2018-07-05T12:25:09.446Z,34.48
2018-07-05T12:26:09.380Z,34.58
2018-07-05T12:27:09.376Z,34.71
2018-07-05T12:28:09.310Z,34.50
2018-07-05T12:29:09.337Z,34.42
2018-07-05T12:30:09.242Z,34.36
2018-07-05T12:31:09.209Z,34.32
2018-07-05T12:32:09.205Z,34.21
2018-07-05T12:33:09.144Z,34.23
2018-07-05T12:34:09.104Z,33.96
2018-07-05T12:35:09.071Z,33.84
2018-07-05T12:36:09.038Z,33.81
2018-07-05T12:37:09.034Z,33.71
2018-07-05T12:38:09.004Z,33.52
2018-07-05T12:39:08.933Z,33.31
2018-07-05T12:40:08.903Z,33.02
2018-07-05T12:41:08.865Z,32.96
2018-07-05T12:42:08.864Z,33.05
2018-07-05T12:43:08.798Z,33.20
2018-07-05T12:44:08.801Z,33.14
2018-07-05T12:45:08.727Z,32.93
2018-07-05T12:46:08.692Z,32.71
2018-07-05T12:47:08.662Z,32.73
2018-07-05T12:48:08.629Z,32.93
2018-07-05T12:49:08.623Z,33.02
2018-07-05T12:50:08.557Z,32.96
2018-07-05T12:51:08.524Z,32.96
2018-07-05T12:52:08.519Z,33.05